Time,TemperatureF,DewpointF,PressureIn,WindDirection,WindDirectionDegrees,WindSpeedMPH,WindSpeedGustMPH,Humidity,HourlyPrecipIn,Conditions,Clouds,dailyrainin,SoftwareType,DateUTC
2013-04-26 00:02:00,53.2,49.5,30.16,NW,315,0.0,0.0,87,0.00,CLR,,0.00,WeatherDisplay:10.37,2013-04-26 05:02:00,
2013-04-26 00:07:00,53.2,49.5,30.16,NW,315,0.0,0.0,87,0.00,CLR,,0.00,WeatherDisplay:10.37,2013-04-26 05:07:00,
2013-04-26 00:12:00,53.1,49.3,30.16,NW,315,0.0,0.0,87,0.00,CLR,,0.00,WeatherDisplay:10.37,2013-04-26 05:12:00,
2013-04-26 00:17:00,53.1,49.3,30.16,NW,315,0.0,0.0,87,0.00,CLR,,0.00,WeatherDisplay:10.37,2013-04-26 05:17:00,
2013-04-26 00:23:00,52.9,49.1,30.17,NW,315,0.0,0.0,87,0.00,CLR,,0.00,WeatherDisplay:10.37,2013-04-26 05:23:00,
2013-04-26 00:28:00,52.9,49.1,30.17,NW,315,0.0,0.0,87,0.00,CLR,,0.00,WeatherDisplay:10.37,2013-04-26 05:28:00,
2013-04-26 00:33:00,52.9,49.1,30.17,NW,315,0.0,0.0,87,0.00,CLR,,0.00,WeatherDisplay:10.37,2013-04-26 05:33:00,
2013-04-26 00:38:00,52.7,48.9,30.17,NW,315,0.0,0.0,87,0.00,CLR,,0.00,WeatherDisplay:10.37,2013-04-26 05:38:00,
2013-04-26 00:43:00,52.7,49.2,30.17,NW,315,0.0,0.0,88,0.00,CLR,,0.00,WeatherDisplay:10.37,2013-04-26 05:43:00,
2013-04-26 00:48:00,52.7,49.2,30.17,NW,315,0.0,0.0,88,0.00,CLR,,0.00,WeatherDisplay:10.37,2013-04-26 05:48:00,
2013-04-26 00:53:00,52.7,49.2,30.16,NW,315,0.0,0.0,88,0.00,CLR,,0.00,WeatherDisplay:10.37,2013-04-26 05:53:00,
2013-04-26 00:58:00,52.7,49.2,30.16,NW,315,0.0,0.0,88,0.00,CLR,,0.00,WeatherDisplay:10.37,2013-04-26 05:58:00,
2013-04-26 01:03:00,52.7,49.2,30.16,NW,315,0.0,0.0,88,0.00,CLR,,0.00,WeatherDisplay:10.37,2013-04-26 06:03:00,
2013-04-26 01:08:00,52.5,49.4,30.16,NW,315,0.0,0.0,89,0.00,CLR,,0.00,WeatherDisplay:10.37,2013-04-26 06:08:00,
2013-04-26 01:13:00,52.5,49.4,30.16,NW,315,0.0,0.0,89,0.00,CLR,,0.00,WeatherDisplay:10.37,2013-04-26 06:13:00,
2013-04-26 01:18:00,52.3,49.2,30.16,NW,315,0.0,0.0,89,0.00,CLR,,0.00,WeatherDisplay:10.37,2013-04-26 06:18:00,
2013-04-26 01:23:00,52.3,49.2,30.15,NW,315,0.0,0.0,89,0.00,CLR,,0.00,WeatherDisplay:10.37,2013-04-26 06:23:00,
2013-04-26 01:28:00,52.3,49.2,30.16,NW,315,0.0,0.0,89,0.00,CLR,,0.00,WeatherDisplay:10.37,2013-04-26 06:28:00,
2013-04-26 01:33:00,52.3,49.2,30.16,NW,315,0.0,0.0,89,0.00,CLR,,0.00,WeatherDisplay:10.37,2013-04-26 06:33:00,
2013-04-26 01:38:00,52.5,49.4,30.15,NW,315,0.0,0.0,89,0.00,CLR,,0.00,WeatherDisplay:10.37,2013-04-26 06:38:00,
2013-04-26 01:43:00,52.3,49.5,30.15,NW,315,0.0,0.0,90,0.00,CLR,,0.00,WeatherDisplay:10.37,2013-04-26 06:43:00,
2013-04-26 01:48:00,52.3,49.5,30.15,NW,315,0.0,0.0,90,0.00,CLR,,0.00,WeatherDisplay:10.37,2013-04-26 06:48:00,
2013-04-26 01:53:00,52.3,49.5,30.14,NW,315,0.0,0.0,90,0.00,CLR,,0.00,WeatherDisplay:10.37,2013-04-26 06:53:00,
2013-04-26 01:58:00,52.3,49.5,30.14,NW,315,0.0,0.0,90,0.00,CLR,,0.00,WeatherDisplay:10.37,2013-04-26 06:58:00,
2013-04-26 02:03:00,52.3,49.5,30.14,NW,315,0.0,0.0,90,0.00,CLR,,0.00,WeatherDisplay:10.37,2013-04-26 07:03:00,
2013-04-26 02:08:00,52.5,50.0,30.14,NW,315,0.0,0.0,91,0.00,CLR,,0.00,WeatherDisplay:10.37,2013-04-26 07:08:00,
2013-04-26 02:13:00,52.5,50.0,30.13,NW,315,0.0,0.0,91,0.00,CLR,,0.00,WeatherDisplay:10.37,2013-04-26 07:13:00,
2013-04-26 02:18:00,52.7,50.1,30.13,NW,315,0.0,0.0,91,0.00,CLR,,0.00,WeatherDisplay:10.37,2013-04-26 07:18:00,
2013-04-26 02:23:00,52.7,50.1,30.13,NW,315,0.0,0.0,91,0.00,CLR,,0.00,WeatherDisplay:10.37,2013-04-26 07:23:00,
2013-04-26 02:28:00,52.7,50.1,30.12,NW,315,1.1,0.0,91,0.00,CLR,,0.00,WeatherDisplay:10.37,2013-04-26 07:28:00,
2013-04-26 02:33:00,52.7,50.1,30.12,NW,315,1.1,0.0,91,0.00,CLR,,0.00,WeatherDisplay:10.37,2013-04-26 07:33:00,
2013-04-26 02:38:00,52.9,50.3,30.11,NW,315,1.1,0.0,91,0.00,CLR,,0.00,WeatherDisplay:10.37,2013-04-26 07:38:00,
2013-04-26 02:43:00,52.9,50.3,30.12,NW,315,1.1,0.0,91,0.00,CLR,,0.00,WeatherDisplay:10.37,2013-04-26 07:43:00,
2013-04-26 02:48:00,52.9,50.3,30.11,NW,315,1.1,0.0,91,0.00,CLR,,0.00,WeatherDisplay:10.37,2013-04-26 07:48:00,
2013-04-26 02:53:00,52.9,50.3,30.11,NW,315,1.1,0.0,91,0.00,CLR,,0.00,WeatherDisplay:10.37,2013-04-26 07:53:00,
2013-04-26 02:58:00,52.7,50.1,30.11,NW,315,1.1,0.0,91,0.00,CLR,,0.00,WeatherDisplay:10.37,2013-04-26 07:58:00,
2013-04-26 03:03:00,52.7,50.1,30.11,NE,45,1.1,0.0,91,0.00,CLR,,0.00,WeatherDisplay:10.37,2013-04-26 08:03:00,
2013-04-26 03:08:00,52.7,50.1,30.11,North,0,1.1,0.0,91,0.00,CLR,,0.00,WeatherDisplay:10.37,2013-04-26 08:08:00,
2013-04-26 03:13:00,52.7,50.1,30.11,SW,225,0.0,0.0,91,0.00,CLR,,0.00,WeatherDisplay:10.37,2013-04-26 08:13:00,
2013-04-26 03:18:00,52.7,50.1,30.11,North,0,0.0,0.0,91,0.00,CLR,,0.00,WeatherDisplay:10.37,2013-04-26 08:18:00,
2013-04-26 03:23:00,52.7,50.1,30.11,North,0,0.0,0.0,91,0.00,CLR,,0.00,WeatherDisplay:10.37,2013-04-26 08:23:00,
2013-04-26 03:28:00,52.5,50.0,30.10,North,0,0.0,0.0,91,0.00,CLR,,0.00,WeatherDisplay:10.37,2013-04-26 08:28:00,
2013-04-26 03:33:00,52.5,50.0,30.11,North,0,0.0,0.0,91,0.00,CLR,,0.00,WeatherDisplay:10.37,2013-04-26 08:33:00,
2013-04-26 03:38:00,52.5,50.0,30.10,NE,45,1.1,0.0,91,0.00,CLR,,0.00,WeatherDisplay:10.37,2013-04-26 08:38:00,
2013-04-26 03:43:00,52.7,50.4,30.10,North,0,1.1,0.0,92,0.00,CLR,,0.00,WeatherDisplay:10.37,2013-04-26 08:43:00,
2013-04-26 03:48:00,52.7,50.4,30.10,North,0,1.1,0.0,92,0.00,CLR,,0.00,WeatherDisplay:10.37,2013-04-26 08:48:00,
2013-04-26 03:53:00,52.7,50.4,30.10,North,0,0.0,0.0,92,0.00,CLR,,0.00,WeatherDisplay:10.37,2013-04-26 08:53:00,
2013-04-26 03:58:00,52.7,50.4,30.10,North,0,0.0,0.0,92,0.00,CLR,,0.00,WeatherDisplay:10.37,2013-04-26 08:58:00,
2013-04-26 04:03:00,52.7,50.4,30.10,North,0,1.1,0.0,92,0.00,CLR,,0.00,WeatherDisplay:10.37,2013-04-26 09:03:00,
2013-04-26 04:08:00,52.7,50.4,30.10,North,0,1.1,0.0,92,0.00,CLR,,0.00,WeatherDisplay:10.37,2013-04-26 09:08:00,
2013-04-26 04:13:00,52.7,50.4,30.10,North,0,0.0,0.0,92,0.00,CLR,,0.00,WeatherDisplay:10.37,2013-04-26 09:13:00,
2013-04-26 04:18:00,52.5,50.3,30.10,North,0,0.0,0.0,92,0.00,CLR,,0.00,WeatherDisplay:10.37,2013-04-26 09:18:00,
2013-04-26 04:24:00,52.5,50.3,30.09,North,0,0.0,0.0,92,0.00,CLR,,0.00,WeatherDisplay:10.37,2013-04-26 09:24:00,
2013-04-26 04:29:00,52.5,50.3,30.10,North,0,0.0,0.0,92,0.00,CLR,,0.00,WeatherDisplay:10.37,2013-04-26 09:29:00,
2013-04-26 04:34:00,52.5,50.3,30.09,North,0,0.0,0.0,92,0.00,CLR,,0.00,WeatherDisplay:10.37,2013-04-26 09:34:00,
2013-04-26 04:39:00,52.5,50.3,30.10,NW,315,1.1,0.0,92,0.00,CLR,,0.00,WeatherDisplay:10.37,2013-04-26 09:39:00,
2013-04-26 04:44:00,52.5,50.3,30.09,NW,315,0.0,0.0,92,0.00,CLR,,0.00,WeatherDisplay:10.37,2013-04-26 09:44:00,
2013-04-26 04:49:00,52.5,50.3,30.10,NW,315,0.0,0.0,92,0.00,CLR,,0.00,WeatherDisplay:10.37,2013-04-26 09:49:00,
2013-04-26 04:54:00,52.5,50.3,30.10,South,180,0.0,0.0,92,0.00,CLR,,0.00,WeatherDisplay:10.37,2013-04-26 09:54:00,
2013-04-26 04:59:00,52.5,50.3,30.11,East,90,0.0,0.0,92,0.00,CLR,,0.00,WeatherDisplay:10.37,2013-04-26 09:59:00,
2013-04-26 05:04:00,52.5,50.3,30.11,East,90,0.0,0.0,92,0.00,CLR,,0.00,WeatherDisplay:10.37,2013-04-26 10:04:00,
2013-04-26 05:09:00,52.5,50.3,30.11,East,90,0.0,0.0,92,0.00,CLR,,0.00,WeatherDisplay:10.37,2013-04-26 10:09:00,
2013-04-26 05:14:00,52.5,50.3,30.11,East,90,0.0,0.0,92,0.00,CLR,,0.00,WeatherDisplay:10.37,2013-04-26 10:14:00,
2013-04-26 05:19:00,52.3,50.1,30.11,East,90,0.0,0.0,92,0.00,CLR,,0.00,WeatherDisplay:10.37,2013-04-26 10:19:00,
2013-04-26 05:24:00,52.3,50.1,30.11,NW,315,1.1,0.0,92,0.00,CLR,,0.00,WeatherDisplay:10.37,2013-04-26 10:24:00,
2013-04-26 05:29:00,52.3,50.1,30.11,NW,315,1.1,0.0,92,0.00,CLR,,0.00,WeatherDisplay:10.37,2013-04-26 10:29:00,
2013-04-26 05:34:00,52.5,50.3,30.11,NW,315,0.0,0.0,92,0.00,CLR,,0.00,WeatherDisplay:10.37,2013-04-26 10:34:00,
2013-04-26 05:39:00,52.3,50.1,30.12,NW,315,0.0,0.0,92,0.00,CLR,,0.00,WeatherDisplay:10.37,2013-04-26 10:39:00,
2013-04-26 05:45:00,52.3,50.4,30.12,NW,315,0.0,0.0,93,0.00,CLR,,0.00,WeatherDisplay:10.37,2013-04-26 10:45:00,
2013-04-26 05:50:00,52.3,50.4,30.12,NW,315,0.0,0.0,93,0.00,CLR,,0.00,WeatherDisplay:10.37,2013-04-26 10:50:00,
2013-04-26 05:55:00,52.3,50.4,30.12,NW,315,0.0,0.0,93,0.00,CLR,,0.00,WeatherDisplay:10.37,2013-04-26 10:55:00,
2013-04-26 06:00:00,52.3,50.1,30.11,NW,315,0.0,0.0,92,0.00,CLR,,0.00,WeatherDisplay:10.37,2013-04-26 11:00:00,
2013-04-26 06:05:00,52.3,50.1,30.11,NW,315,0.0,0.0,92,0.00,CLR,,0.00,WeatherDisplay:10.37,2013-04-26 11:05:00,
2013-04-26 06:10:00,52.3,50.4,30.12,NW,315,0.0,0.0,93,0.00,CLR,,0.00,WeatherDisplay:10.37,2013-04-26 11:10:00,
2013-04-26 06:15:00,52.3,50.4,30.12,NW,315,0.0,0.0,93,0.00,CLR,,0.00,WeatherDisplay:10.37,2013-04-26 11:15:00,
2013-04-26 06:20:00,52.3,50.4,30.12,SW,225,0.0,0.0,93,0.00,CLR,,0.00,WeatherDisplay:10.37,2013-04-26 11:20:00,
2013-04-26 06:25:00,52.3,50.4,30.12,West,270,0.0,0.0,93,0.00,CLR,,0.00,WeatherDisplay:10.37,2013-04-26 11:25:00,
2013-04-26 06:30:00,52.5,50.6,30.12,West,270,0.0,0.0,93,0.00,CLR,,0.00,WeatherDisplay:10.37,2013-04-26 11:30:00,
2013-04-26 06:35:00,52.5,50.6,30.13,NW,315,0.0,0.0,93,0.00,CLR,,0.00,WeatherDisplay:10.37,2013-04-26 11:35:00,
2013-04-26 06:40:00,52.5,50.6,30.12,NW,315,0.0,0.0,93,0.00,CLR,,0.00,WeatherDisplay:10.37,2013-04-26 11:40:00,
2013-04-26 06:45:00,52.5,50.6,30.13,NW,315,0.0,0.0,93,0.00,CLR,,0.00,WeatherDisplay:10.37,2013-04-26 11:45:00,
2013-04-26 06:50:00,52.7,50.7,30.12,NW,315,0.0,0.0,93,0.00,CLR,,0.00,WeatherDisplay:10.37,2013-04-26 11:50:00,
2013-04-26 06:55:00,52.7,50.7,30.13,West,270,0.0,0.0,93,0.00,CLR,,0.00,WeatherDisplay:10.37,2013-04-26 11:55:00,
2013-04-26 07:00:00,52.9,50.9,30.13,West,270,0.0,0.0,93,0.00,CLR,,0.00,WeatherDisplay:10.37,2013-04-26 12:00:00,
2013-04-26 07:05:00,53.1,51.1,30.13,West,270,0.0,0.0,93,0.00,CLR,,0.00,WeatherDisplay:10.37,2013-04-26 12:05:00,
2013-04-26 07:10:00,53.4,51.4,30.14,West,270,0.0,0.0,93,0.00,CLR,,0.00,WeatherDisplay:10.37,2013-04-26 12:10:00,
2013-04-26 07:15:00,53.6,51.6,30.14,West,270,0.0,0.0,93,0.00,CLR,,0.00,WeatherDisplay:10.37,2013-04-26 12:15:00,
2013-04-26 07:20:00,53.6,51.6,30.14,West,270,0.0,0.0,93,0.00,CLR,,0.00,WeatherDisplay:10.37,2013-04-26 12:20:00,
2013-04-26 07:25:00,54.1,52.2,30.14,West,270,0.0,0.0,93,0.00,CLR,,0.00,WeatherDisplay:10.37,2013-04-26 12:25:00,
2013-04-26 07:30:00,54.5,52.8,30.14,West,270,0.0,0.0,94,0.00,CLR,,0.00,WeatherDisplay:10.37,2013-04-26 12:30:00,
2013-04-26 07:35:00,55.0,53.1,30.14,West,270,0.0,0.0,93,0.00,CLR,,0.00,WeatherDisplay:10.37,2013-04-26 12:35:00,
2013-04-26 07:40:00,55.6,53.6,30.15,SW,225,0.0,0.0,93,0.00,CLR,,0.00,WeatherDisplay:10.37,2013-04-26 12:40:00,
2013-04-26 07:45:00,55.9,53.9,30.15,SW,225,0.0,0.0,93,0.00,CLR,,0.00,WeatherDisplay:10.37,2013-04-26 12:45:00,
2013-04-26 07:50:00,56.5,54.5,30.14,NE,45,1.1,0.0,93,0.00,CLR,,0.00,WeatherDisplay:10.37,2013-04-26 12:50:00,
2013-04-26 07:55:00,56.8,54.5,30.14,NE,45,1.1,1.1,92,0.00,CLR,,0.00,WeatherDisplay:10.37,2013-04-26 12:55:00,
2013-04-26 08:00:00,57.6,55.0,30.14,NE,45,1.1,0.0,91,0.00,CLR,,0.00,WeatherDisplay:10.37,2013-04-26 13:00:00,
2013-04-26 08:05:00,58.1,55.2,30.15,West,270,1.1,0.0,90,0.00,CLR,,0.00,WeatherDisplay:10.37,2013-04-26 13:05:00,
2013-04-26 08:10:00,58.6,55.4,30.14,NE,45,1.1,0.0,89,0.00,CLR,,0.00,WeatherDisplay:10.37,2013-04-26 13:10:00,
2013-04-26 08:15:00,59.2,55.6,30.14,SE,135,1.1,0.0,88,0.00,CLR,,0.00,WeatherDisplay:10.37,2013-04-26 13:15:00,
2013-04-26 08:20:00,59.2,55.6,30.14,SE,135,2.3,0.0,88,0.00,CLR,,0.00,WeatherDisplay:10.37,2013-04-26 13:20:00,
2013-04-26 08:25:00,60.1,55.9,30.14,East,90,2.3,2.3,86,0.00,CLR,,0.00,WeatherDisplay:10.37,2013-04-26 13:25:00,
2013-04-26 08:30:00,60.4,55.9,30.14,SE,135,1.1,0.0,85,0.00,CLR,,0.00,WeatherDisplay:10.37,2013-04-26 13:30:00,
2013-04-26 08:35:00,60.8,56.3,30.14,NW,315,2.3,0.0,85,0.00,CLR,,0.00,WeatherDisplay:10.37,2013-04-26 13:35:00,
2013-04-26 08:40:00,61.2,56.6,30.14,South,180,2.3,2.3,85,0.00,CLR,,0.00,WeatherDisplay:10.37,2013-04-26 13:40:00,
2013-04-26 08:45:00,61.5,56.6,30.14,SW,225,1.1,0.0,84,0.00,CLR,,0.00,WeatherDisplay:10.37,2013-04-26 13:45:00,
2013-04-26 08:50:00,62.1,56.2,30.14,East,90,2.3,2.3,81,0.00,CLR,,0.00,WeatherDisplay:10.37,2013-04-26 13:50:00,
2013-04-26 08:55:00,62.4,55.8,30.14,NE,45,2.3,2.3,79,0.00,CLR,,0.00,WeatherDisplay:10.37,2013-04-26 13:55:00,
2013-04-26 09:00:00,62.8,56.2,30.14,NW,315,1.1,0.0,79,0.00,CLR,,0.00,WeatherDisplay:10.37,2013-04-26 14:00:00,
2013-04-26 09:05:00,62.8,56.2,30.14,NW,315,1.1,0.0,79,0.00,CLR,,0.00,WeatherDisplay:10.37,2013-04-26 14:05:00,
2013-04-26 09:10:00,63.5,56.2,30.15,NE,45,1.1,0.0,77,0.00,CLR,,0.00,WeatherDisplay:10.37,2013-04-26 14:10:00,
2013-04-26 09:15:00,63.9,56.1,30.15,SE,135,2.3,0.0,76,0.00,CLR,,0.00,WeatherDisplay:10.37,2013-04-26 14:15:00,
2013-04-26 09:20:00,64.0,56.0,30.15,North,0,1.1,0.0,75,0.00,CLR,,0.00,WeatherDisplay:10.37,2013-04-26 14:20:00,
2013-04-26 09:25:00,64.8,57.0,30.15,West,270,2.2,0.0,76,0.00,CLR,,0.00,WeatherDisplay:10.37,2013-04-26 14:25:00,
2013-04-26 09:30:00,65.5,57.7,30.15,SE,135,1.1,0.0,76,0.00,CLR,,0.00,WeatherDisplay:10.37,2013-04-26 14:30:00,
2013-04-26 09:35:00,66.0,57.9,30.15,SE,135,2.3,0.0,75,0.00,CLR,,0.00,WeatherDisplay:10.37,2013-04-26 14:35:00,
2013-04-26 09:40:00,66.2,57.3,30.15,West,270,1.1,0.0,73,0.00,CLR,,0.00,WeatherDisplay:10.37,2013-04-26 14:40:00,
2013-04-26 09:45:00,66.4,57.5,30.14,East,90,1.1,0.0,73,0.00,CLR,,0.00,WeatherDisplay:10.37,2013-04-26 14:45:00,
2013-04-26 09:50:00,66.6,56.9,30.14,North,0,3.5,0.0,71,0.00,CLR,,0.00,WeatherDisplay:10.37,2013-04-26 14:50:00,
2013-04-26 09:55:00,66.9,57.6,30.14,ENE,68,2.3,0.0,72,0.00,CLR,,0.00,WeatherDisplay:10.37,2013-04-26 14:55:00,
2013-04-26 10:00:00,67.8,58.8,30.15,NE,45,2.3,2.3,73,0.00,CLR,,0.00,WeatherDisplay:10.37,2013-04-26 15:00:00,
2013-04-26 10:05:00,67.8,58.8,30.14,NE,45,2.3,2.3,73,0.00,CLR,,0.00,WeatherDisplay:10.37,2013-04-26 15:05:00,
2013-04-26 10:10:00,70.7,59.2,30.14,NE,45,3.5,0.0,67,0.00,CLR,,0.00,WeatherDisplay:10.37,2013-04-26 15:10:00,
2013-04-26 10:15:00,71.4,59.9,30.14,South,180,1.1,0.0,67,0.00,CLR,,0.00,WeatherDisplay:10.37,2013-04-26 15:15:00,
2013-04-26 10:20:00,71.6,58.8,30.14,NW,315,3.5,3.5,64,0.00,CLR,,0.00,WeatherDisplay:10.37,2013-04-26 15:20:00,
2013-04-26 10:25:00,71.8,59.4,30.14,East,90,2.3,2.3,65,0.00,CLR,,0.00,WeatherDisplay:10.37,2013-04-26 15:25:00,
2013-04-26 10:30:00,72.0,59.1,30.14,East,90,1.6,0.0,64,0.00,CLR,,0.00,WeatherDisplay:10.37,2013-04-26 15:30:00,
2013-04-26 10:35:00,72.3,59.5,30.14,East,90,3.5,3.5,64,0.00,CLR,,0.00,WeatherDisplay:10.37,2013-04-26 15:35:00,
2013-04-26 10:40:00,72.7,59.4,30.14,NW,315,2.3,2.3,63,0.00,CLR,,0.00,WeatherDisplay:10.37,2013-04-26 15:40:00,
2013-04-26 10:45:00,72.9,60.0,30.14,NE,45,2.3,2.3,64,0.00,CLR,,0.00,WeatherDisplay:10.37,2013-04-26 15:45:00,
2013-04-26 10:50:00,72.9,59.1,30.14,NE,45,1.1,0.0,62,0.00,CLR,,0.00,WeatherDisplay:10.37,2013-04-26 15:50:00,
2013-04-26 10:55:00,73.2,59.9,30.14,NE,45,1.1,0.0,63,0.00,CLR,,0.00,WeatherDisplay:10.37,2013-04-26 15:55:00,
2013-04-26 11:00:00,73.4,60.0,30.14,NW,315,2.3,2.3,63,0.00,CLR,,0.00,WeatherDisplay:10.37,2013-04-26 16:00:00,
2013-04-26 11:05:00,73.4,60.0,30.14,NW,315,2.3,2.3,63,0.00,CLR,,0.00,WeatherDisplay:10.37,2013-04-26 16:05:00,
2013-04-26 11:10:00,74.3,60.0,30.14,NE,45,2.3,0.0,61,0.00,CLR,,0.00,WeatherDisplay:10.37,2013-04-26 16:10:00,
2013-04-26 11:15:00,74.3,60.9,30.15,West,270,1.1,0.0,63,0.00,CLR,,0.00,WeatherDisplay:10.37,2013-04-26 16:15:00,
2013-04-26 11:20:00,74.5,59.7,30.14,North,0,1.1,1.6,60,0.00,CLR,,0.00,WeatherDisplay:10.37,2013-04-26 16:20:00,
2013-04-26 11:25:00,74.5,60.1,30.15,SW,225,1.1,0.0,61,0.00,CLR,,0.00,WeatherDisplay:10.37,2013-04-26 16:25:00,
2013-04-26 11:30:00,74.7,60.8,30.15,NE,45,1.1,1.1,62,0.00,CLR,,0.00,WeatherDisplay:10.37,2013-04-26 16:30:00,
2013-04-26 11:35:00,74.8,60.0,30.14,SE,135,2.3,0.0,60,0.00,CLR,,0.00,WeatherDisplay:10.37,2013-04-26 16:35:00,
2013-04-26 11:40:00,75.0,61.1,30.15,South,180,2.3,0.0,62,0.00,CLR,,0.00,WeatherDisplay:10.37,2013-04-26 16:40:00,
2013-04-26 11:45:00,75.4,61.0,30.15,North,0,1.1,1.1,61,0.00,CLR,,0.00,WeatherDisplay:10.37,2013-04-26 16:45:00,
2013-04-26 11:51:00,75.7,61.8,30.14,SW,225,3.5,0.0,62,0.00,CLR,,0.00,WeatherDisplay:10.37,2013-04-26 16:51:00,
2013-04-26 11:56:00,76.1,61.7,30.14,SE,135,1.1,0.0,61,0.00,CLR,,0.00,WeatherDisplay:10.37,2013-04-26 16:56:00,
2013-04-26 12:01:00,76.5,61.1,30.15,SE,135,2.3,2.3,59,0.00,CLR,,0.00,WeatherDisplay:10.37,2013-04-26 17:01:00,
2013-04-26 12:06:00,76.5,61.1,30.14,SE,135,2.3,2.3,59,0.00,CLR,,0.00,WeatherDisplay:10.37,2013-04-26 17:06:00,
2013-04-26 12:11:00,77.0,63.0,30.14,NE,45,1.1,0.0,62,0.00,CLR,,0.00,WeatherDisplay:10.37,2013-04-26 17:11:00,
2013-04-26 12:16:00,77.5,63.9,30.14,ENE,68,2.3,0.0,63,0.00,CLR,,0.00,WeatherDisplay:10.37,2013-04-26 17:16:00,
2013-04-26 12:21:00,78.6,63.1,30.14,South,180,4.6,4.6,59,0.00,CLR,,0.00,WeatherDisplay:10.37,2013-04-26 17:21:00,
2013-04-26 12:26:00,78.6,63.6,30.14,SE,135,3.5,3.5,60,0.00,CLR,,0.00,WeatherDisplay:10.37,2013-04-26 17:26:00,
2013-04-26 12:32:00,78.6,64.0,30.14,SE,135,3.5,3.5,61,0.00,CLR,,0.00,WeatherDisplay:10.37,2013-04-26 17:32:00,
2013-04-26 12:37:00,79.0,63.4,30.14,ENE,68,4.6,4.6,59,0.00,CLR,,0.00,WeatherDisplay:10.37,2013-04-26 17:37:00,
2013-04-26 12:42:00,79.2,65.5,30.14,East,90,5.8,5.8,63,0.00,CLR,,0.00,WeatherDisplay:10.37,2013-04-26 17:42:00,
2013-04-26 12:47:00,79.9,65.2,30.14,South,180,3.5,3.5,61,0.00,CLR,,0.00,WeatherDisplay:10.37,2013-04-26 17:47:00,
2013-04-26 12:52:00,80.1,64.4,30.13,NE,45,3.5,3.5,59,0.00,CLR,,0.00,WeatherDisplay:10.37,2013-04-26 17:52:00,
2013-04-26 12:57:00,79.9,63.8,30.13,SW,225,3.5,0.0,58,0.00,CLR,,0.00,WeatherDisplay:10.37,2013-04-26 17:57:00,
2013-04-26 13:02:00,80.1,64.9,30.13,SW,225,3.5,3.5,60,0.00,CLR,,0.00,WeatherDisplay:10.37,2013-04-26 18:02:00,
2013-04-26 13:07:00,80.1,64.9,30.13,SW,225,3.5,3.5,60,0.00,CLR,,0.00,WeatherDisplay:10.37,2013-04-26 18:07:00,
2013-04-26 13:12:00,80.1,64.9,30.13,South,180,5.8,5.8,60,0.00,CLR,,0.00,WeatherDisplay:10.37,2013-04-26 18:12:00,
2013-04-26 13:17:00,79.5,63.9,30.13,South,180,2.3,2.3,59,0.00,CLR,,0.00,WeatherDisplay:10.37,2013-04-26 18:17:00,
2013-04-26 13:22:00,79.0,64.8,30.13,West,270,3.5,3.5,62,0.00,CLR,,0.00,WeatherDisplay:10.37,2013-04-26 18:22:00,
2013-04-26 13:27:00,78.8,64.7,30.12,West,270,2.3,0.0,62,0.00,CLR,,0.00,WeatherDisplay:10.37,2013-04-26 18:27:00,
2013-04-26 13:32:00,79.3,65.6,30.12,NW,315,1.1,1.1,63,0.00,CLR,,0.00,WeatherDisplay:10.37,2013-04-26 18:32:00,
2013-04-26 13:37:00,79.2,65.0,30.12,West,270,4.6,4.6,62,0.00,CLR,,0.00,WeatherDisplay:10.37,2013-04-26 18:37:00,
2013-04-26 13:42:00,79.0,64.8,30.12,North,0,2.3,0.0,62,0.00,CLR,,0.00,WeatherDisplay:10.37,2013-04-26 18:42:00,
2013-04-26 13:47:00,78.8,63.7,30.12,SE,135,4.6,4.6,60,0.00,CLR,,0.00,WeatherDisplay:10.37,2013-04-26 18:47:00,
2013-04-26 13:52:00,78.1,64.0,30.11,NE,45,2.3,0.0,62,0.00,CLR,,0.00,WeatherDisplay:10.37,2013-04-26 18:52:00,
2013-04-26 13:57:00,78.1,64.0,30.11,NE,45,3.5,0.0,62,0.00,CLR,,0.00,WeatherDisplay:10.37,2013-04-26 18:57:00,
2013-04-26 14:02:00,78.1,64.9,30.11,West,270,2.3,2.3,64,0.00,CLR,,0.00,WeatherDisplay:10.37,2013-04-26 19:02:00,
2013-04-26 14:07:00,78.1,65.8,30.11,NE,45,2.3,0.0,66,0.00,CLR,,0.00,WeatherDisplay:10.37,2013-04-26 19:07:00,
2013-04-26 14:12:00,78.4,65.7,30.11,SW,225,2.3,2.3,65,0.00,CLR,,0.00,WeatherDisplay:10.37,2013-04-26 19:12:00,
2013-04-26 14:17:00,78.4,65.7,30.11,West,270,3.5,0.0,65,0.00,CLR,,0.00,WeatherDisplay:10.37,2013-04-26 19:17:00,
2013-04-26 14:22:00,79.2,66.8,30.10,NE,45,1.1,1.1,66,0.00,CLR,,0.00,WeatherDisplay:10.37,2013-04-26 19:22:00,
2013-04-26 14:27:00,79.7,66.9,30.10,North,0,2.3,0.0,65,0.00,CLR,,0.00,WeatherDisplay:10.37,2013-04-26 19:27:00,
2013-04-26 14:32:00,80.1,65.4,30.10,SE,135,3.5,0.0,61,0.00,CLR,,0.00,WeatherDisplay:10.37,2013-04-26 19:32:00,
2013-04-26 14:37:00,80.1,65.9,30.10,South,180,2.3,0.0,62,0.00,CLR,,0.00,WeatherDisplay:10.37,2013-04-26 19:37:00,
2013-04-26 14:42:00,79.7,66.0,30.10,East,90,3.5,0.0,63,0.00,CLR,,0.00,WeatherDisplay:10.37,2013-04-26 19:42:00,
2013-04-26 14:47:00,79.2,65.5,30.10,North,0,2.3,2.3,63,0.00,CLR,,0.00,WeatherDisplay:10.37,2013-04-26 19:47:00,
2013-04-26 14:52:00,79.3,66.5,30.09,South,180,2.3,0.0,65,0.00,CLR,,0.00,WeatherDisplay:10.37,2013-04-26 19:52:00,
2013-04-26 14:57:00,79.7,66.4,30.09,East,90,2.3,0.0,64,0.00,CLR,,0.00,WeatherDisplay:10.37,2013-04-26 19:57:00,
2013-04-26 15:02:00,79.7,66.0,30.09,SW,225,2.3,2.3,63,0.00,CLR,,0.00,WeatherDisplay:10.37,2013-04-26 20:02:00,
2013-04-26 15:07:00,79.7,66.4,30.08,SE,135,2.3,0.0,64,0.00,CLR,,0.00,WeatherDisplay:10.37,2013-04-26 20:07:00,
2013-04-26 15:13:00,79.5,66.3,30.08,NW,315,2.3,2.3,64,0.00,CLR,,0.00,WeatherDisplay:10.37,2013-04-26 20:13:00,
2013-04-26 15:18:00,79.7,66.0,30.08,NE,45,1.1,0.0,63,0.00,CLR,,0.00,WeatherDisplay:10.37,2013-04-26 20:18:00,
2013-04-26 15:23:00,80.1,67.2,30.08,West,270,2.3,2.3,65,0.00,CLR,,0.00,WeatherDisplay:10.37,2013-04-26 20:23:00,
2013-04-26 15:28:00,80.1,66.8,30.08,SE,135,2.3,0.0,64,0.00,CLR,,0.00,WeatherDisplay:10.37,2013-04-26 20:28:00,
2013-04-26 15:33:00,79.5,66.7,30.08,West,270,3.5,3.5,65,0.00,CLR,,0.00,WeatherDisplay:10.37,2013-04-26 20:33:00,
2013-04-26 15:38:00,78.8,66.5,30.08,SW,225,1.1,0.0,66,0.00,CLR,,0.00,WeatherDisplay:10.37,2013-04-26 20:38:00,
2013-04-26 15:43:00,78.4,67.0,30.08,SW,225,1.1,0.0,68,0.00,CLR,,0.00,WeatherDisplay:10.37,2013-04-26 20:43:00,
2013-04-26 15:48:00,78.3,66.8,30.08,SSW,202,1.1,0.0,68,0.00,CLR,,0.00,WeatherDisplay:10.37,2013-04-26 20:48:00,
2013-04-26 15:53:00,78.1,66.7,30.07,West,270,2.3,2.3,68,0.00,CLR,,0.00,WeatherDisplay:10.37,2013-04-26 20:53:00,
2013-04-26 15:58:00,77.7,66.7,30.07,NE,45,0.0,0.0,69,0.00,CLR,,0.00,WeatherDisplay:10.37,2013-04-26 20:58:00,
2013-04-26 16:03:00,77.7,67.2,30.07,NE,45,0.0,0.0,70,0.00,CLR,,0.00,WeatherDisplay:10.37,2013-04-26 21:03:00,
2013-04-26 16:08:00,77.4,66.8,30.06,SE,135,1.1,0.0,70,0.00,CLR,,0.00,WeatherDisplay:10.37,2013-04-26 21:08:00,
2013-04-26 16:13:00,77.4,67.2,30.06,SW,225,1.1,0.0,71,0.00,CLR,,0.00,WeatherDisplay:10.37,2013-04-26 21:13:00,
2013-04-26 16:18:00,77.5,67.4,30.06,SE,135,1.1,0.0,71,0.00,CLR,,0.00,WeatherDisplay:10.37,2013-04-26 21:18:00,
2013-04-26 16:23:00,77.5,67.0,30.06,SE,135,1.1,0.0,70,0.00,CLR,,0.00,WeatherDisplay:10.37,2013-04-26 21:23:00,
2013-04-26 16:28:00,77.5,67.0,30.06,North,0,1.1,0.0,70,0.00,CLR,,0.00,WeatherDisplay:10.37,2013-04-26 21:28:00,
2013-04-26 16:33:00,77.7,67.2,30.06,SE,135,2.3,0.0,70,0.00,CLR,,0.00,WeatherDisplay:10.37,2013-04-26 21:33:00,
2013-04-26 16:38:00,77.7,67.2,30.05,SE,135,1.1,0.0,70,0.00,CLR,,0.00,WeatherDisplay:10.37,2013-04-26 21:38:00,
2013-04-26 16:44:00,78.1,67.1,30.06,South,180,1.1,0.0,69,0.00,CLR,,0.00,WeatherDisplay:10.37,2013-04-26 21:44:00,
2013-04-26 16:49:00,78.3,67.3,30.06,NE,45,1.1,0.0,69,0.00,CLR,,0.00,WeatherDisplay:10.37,2013-04-26 21:49:00,
2013-04-26 16:54:00,78.1,67.5,30.05,SW,225,1.1,0.0,70,0.00,CLR,,0.00,WeatherDisplay:10.37,2013-04-26 21:54:00,
2013-04-26 16:59:00,78.1,67.1,30.05,SE,135,1.1,0.0,69,0.00,CLR,,0.00,WeatherDisplay:10.37,2013-04-26 21:59:00,
2013-04-26 17:04:00,78.1,67.5,30.06,SW,225,1.1,0.0,70,0.00,CLR,,0.00,WeatherDisplay:10.37,2013-04-26 22:04:00,
2013-04-26 17:09:00,78.1,67.1,30.06,NE,45,1.1,0.0,69,0.00,CLR,,0.00,WeatherDisplay:10.37,2013-04-26 22:09:00,
2013-04-26 17:14:00,78.1,67.9,30.06,SW,225,1.1,0.0,71,0.00,CLR,,0.00,WeatherDisplay:10.37,2013-04-26 22:14:00,
2013-04-26 17:19:00,77.7,67.6,30.06,West,270,1.1,0.0,71,0.00,CLR,,0.00,WeatherDisplay:10.37,2013-04-26 22:19:00,
2013-04-26 17:24:00,77.2,67.9,30.06,East,90,1.1,0.0,73,0.00,CLR,,0.00,WeatherDisplay:10.37,2013-04-26 22:24:00,
2013-04-26 17:29:00,76.8,67.9,30.06,SE,135,1.1,0.0,74,0.00,CLR,,0.00,WeatherDisplay:10.37,2013-04-26 22:29:00,
2013-04-26 17:34:00,76.6,68.1,30.05,SW,225,1.1,0.0,75,0.00,CLR,,0.00,WeatherDisplay:10.37,2013-04-26 22:34:00,
2013-04-26 17:39:00,76.3,67.8,30.05,North,0,1.1,0.0,75,0.00,CLR,,0.00,WeatherDisplay:10.37,2013-04-26 22:39:00,
2013-04-26 17:44:00,76.3,67.8,30.05,South,180,0.0,0.0,75,0.00,CLR,,0.00,WeatherDisplay:10.37,2013-04-26 22:44:00,
2013-04-26 17:49:00,76.1,68.0,30.05,NW,315,1.1,0.0,76,0.00,CLR,,0.00,WeatherDisplay:10.37,2013-04-26 22:49:00,
2013-04-26 17:54:00,75.9,68.2,30.05,NW,315,0.0,0.0,77,0.00,CLR,,0.00,WeatherDisplay:10.37,2013-04-26 22:54:00,
2013-04-26 17:59:00,75.7,68.0,30.06,NW,315,1.1,0.0,77,0.00,CLR,,0.00,WeatherDisplay:10.37,2013-04-26 22:59:00,
2013-04-26 18:04:00,75.4,67.7,30.05,NW,315,0.0,0.0,77,0.00,CLR,,0.00,WeatherDisplay:10.37,2013-04-26 23:04:00,
2013-04-26 18:09:00,75.0,67.7,30.05,NW,315,0.0,0.0,78,0.00,CLR,,0.00,WeatherDisplay:10.37,2013-04-26 23:09:00,
2013-04-26 18:14:00,74.8,67.5,30.06,NW,315,0.0,0.0,78,0.00,CLR,,0.00,WeatherDisplay:10.37,2013-04-26 23:14:00,
2013-04-26 18:19:00,74.8,67.5,30.06,NW,315,0.0,0.0,78,0.00,CLR,,0.00,WeatherDisplay:10.37,2013-04-26 23:19:00,
2013-04-26 18:24:00,74.1,67.2,30.06,SW,225,0.0,0.0,79,0.00,CLR,,0.00,WeatherDisplay:10.37,2013-04-26 23:24:00,
2013-04-26 18:29:00,73.9,67.0,30.06,SW,225,0.0,0.0,79,0.00,CLR,,0.00,WeatherDisplay:10.37,2013-04-26 23:29:00,
2013-04-26 18:35:00,73.8,67.2,30.05,SW,225,0.0,0.0,80,0.00,CLR,,0.00,WeatherDisplay:10.37,2013-04-26 23:35:00,
2013-04-26 18:40:00,73.6,67.0,30.05,East,90,1.1,1.1,80,0.00,CLR,,0.00,WeatherDisplay:10.37,2013-04-26 23:40:00,
2013-04-26 18:45:00,73.6,67.0,30.05,East,90,1.1,0.0,80,0.00,CLR,,0.00,WeatherDisplay:10.37,2013-04-26 23:45:00,
2013-04-26 18:50:00,73.8,67.2,30.05,East,90,0.0,0.0,80,0.00,CLR,,0.00,WeatherDisplay:10.37,2013-04-26 23:50:00,
2013-04-26 19:07:00,73.8,67.6,30.05,SW,225,0.0,0.0,81,0.00,CLR,,0.00,WeatherDisplay:10.37,2013-04-27 00:07:00,
2013-04-26 19:12:00,73.2,67.0,30.05,SW,225,1.1,0.0,81,0.00,CLR,,0.00,WeatherDisplay:10.37,2013-04-27 00:12:00,
2013-04-26 19:17:00,73.0,67.2,30.05,SW,225,0.0,0.0,82,0.00,CLR,,0.00,WeatherDisplay:10.37,2013-04-27 00:17:00,
2013-04-26 19:22:00,73.0,67.2,30.05,SW,225,0.0,0.0,82,0.00,CLR,,0.00,WeatherDisplay:10.37,2013-04-27 00:22:00,
2013-04-26 19:27:00,72.9,67.4,30.05,North,0,1.1,0.0,83,0.00,CLR,,0.00,WeatherDisplay:10.37,2013-04-27 00:27:00,
2013-04-26 19:32:00,72.9,67.4,30.06,NW,315,1.1,0.0,83,0.00,CLR,,0.00,WeatherDisplay:10.37,2013-04-27 00:32:00,
2013-04-26 19:37:00,72.5,67.0,30.06,NW,315,0.0,0.0,83,0.00,CLR,,0.00,WeatherDisplay:10.37,2013-04-27 00:37:00,
2013-04-26 19:42:00,72.3,67.2,30.06,North,0,1.1,0.0,84,0.00,CLR,,0.00,WeatherDisplay:10.37,2013-04-27 00:42:00,
2013-04-26 19:47:00,72.1,67.0,30.05,North,0,0.0,0.0,84,0.00,CLR,,0.00,WeatherDisplay:10.37,2013-04-27 00:47:00,
2013-04-26 19:52:00,72.0,66.9,30.05,North,0,1.1,0.0,84,0.00,CLR,,0.00,WeatherDisplay:10.37,2013-04-27 00:52:00,
2013-04-26 19:57:00,71.8,67.0,30.06,North,0,0.0,0.0,85,0.00,CLR,,0.00,WeatherDisplay:10.37,2013-04-27 00:57:00,
2013-04-26 20:03:00,71.8,67.0,30.06,North,0,0.0,0.0,85,0.00,CLR,,0.00,WeatherDisplay:10.37,2013-04-27 01:03:00,
2013-04-26 20:08:00,71.8,67.0,30.06,North,0,0.0,0.0,85,0.00,CLR,,0.00,WeatherDisplay:10.37,2013-04-27 01:08:00,
2013-04-26 20:14:00,71.4,66.7,30.06,North,0,0.0,0.0,85,0.00,CLR,,0.00,WeatherDisplay:10.37,2013-04-27 01:14:00,
2013-04-26 20:19:00,71.2,66.8,30.06,North,0,0.0,0.0,86,0.00,CLR,,0.00,WeatherDisplay:10.37,2013-04-27 01:19:00,
2013-04-26 20:24:00,71.1,66.7,30.06,North,0,0.0,0.0,86,0.00,CLR,,0.00,WeatherDisplay:10.37,2013-04-27 01:24:00,
2013-04-26 20:29:00,71.1,66.7,30.06,North,0,1.1,0.0,86,0.00,CLR,,0.00,WeatherDisplay:10.37,2013-04-27 01:29:00,
2013-04-26 20:34:00,70.9,66.8,30.06,North,0,0.0,0.0,87,0.00,CLR,,0.00,WeatherDisplay:10.37,2013-04-27 01:34:00,
2013-04-26 20:39:00,70.9,66.8,30.06,North,0,1.1,0.0,87,0.00,CLR,,0.00,WeatherDisplay:10.37,2013-04-27 01:39:00,
2013-04-26 20:44:00,70.9,66.8,30.06,North,0,0.0,0.0,87,0.00,CLR,,0.00,WeatherDisplay:10.37,2013-04-27 01:44:00,
2013-04-26 20:49:00,70.7,66.6,30.06,North,0,1.1,0.0,87,0.00,CLR,,0.00,WeatherDisplay:10.37,2013-04-27 01:49:00,
2013-04-26 20:54:00,70.7,66.6,30.06,North,0,0.0,0.0,87,0.00,CLR,,0.00,WeatherDisplay:10.37,2013-04-27 01:54:00,
2013-04-26 20:59:00,70.5,66.5,30.06,North,0,0.0,0.0,87,0.00,CLR,,0.00,WeatherDisplay:10.37,2013-04-27 01:59:00,
2013-04-26 21:04:00,70.5,66.5,30.06,SE,135,1.1,0.0,87,0.00,CLR,,0.00,WeatherDisplay:10.37,2013-04-27 02:04:00,
2013-04-26 21:09:00,70.5,66.5,30.05,SE,135,1.1,0.0,87,0.00,CLR,,0.00,WeatherDisplay:10.37,2013-04-27 02:09:00,
2013-04-26 21:14:00,70.7,66.6,30.05,SSE,148,0.0,2.0,87,0.00,CLR,,0.00,WeatherDisplay:10.37,2013-04-27 02:14:00,
2013-04-26 21:19:00,70.5,66.5,30.06,NW,315,0.0,2.0,87,0.00,CLR,,0.00,WeatherDisplay:10.37,2013-04-27 02:19:00,
2013-04-26 21:24:00,70.3,66.6,30.06,WNW,298,0.0,2.0,88,0.00,CLR,,0.00,WeatherDisplay:10.37,2013-04-27 02:24:00,
2013-04-26 21:29:00,70.2,66.4,30.06,ESE,109,0.0,2.0,88,0.00,CLR,,0.00,WeatherDisplay:10.37,2013-04-27 02:29:00,
2013-04-26 21:34:00,70.2,66.4,30.06,ENE,74,0.0,2.0,88,0.00,CLR,,0.00,WeatherDisplay:10.37,2013-04-27 02:34:00,
2013-04-26 21:39:00,70.2,66.4,30.06,NE,53,0.0,1.0,88,0.00,CLR,,0.00,WeatherDisplay:10.37,2013-04-27 02:39:00,
2013-04-26 21:44:00,70.0,66.3,30.06,NNW,328,0.0,1.0,88,0.00,CLR,,0.00,WeatherDisplay:10.37,2013-04-27 02:44:00,
2013-04-26 21:49:00,70.2,66.8,30.05,North,352,1.0,2.0,89,0.00,CLR,,0.00,WeatherDisplay:10.37,2013-04-27 02:49:00,
2013-04-26 21:54:00,70.2,66.8,30.04,East,82,0.0,2.0,89,0.00,CLR,,0.00,WeatherDisplay:10.37,2013-04-27 02:54:00,
2013-04-26 21:59:00,70.0,66.3,30.05,SW,225,1.1,0.0,88,0.00,CLR,,0.00,WeatherDisplay:10.37,2013-04-27 02:59:00,
2013-04-26 22:04:00,70.0,66.3,30.05,SW,225,0.0,0.0,88,0.00,CLR,,0.00,WeatherDisplay:10.37,2013-04-27 03:04:00,
2013-04-26 22:09:00,69.4,66.1,30.05,West,270,0.0,0.0,89,0.00,CLR,,0.00,WeatherDisplay:10.37,2013-04-27 03:09:00,
2013-04-26 22:14:00,69.3,65.9,30.06,WSW,256,0.0,1.0,89,0.00,CLR,,0.00,WeatherDisplay:10.37,2013-04-27 03:14:00,
2013-04-26 22:19:00,69.1,65.7,30.05,NNW,345,0.0,2.0,89,0.00,CLR,,0.00,WeatherDisplay:10.37,2013-04-27 03:19:00,
2013-04-26 22:24:00,69.1,66.0,30.05,West,271,0.0,2.0,90,0.00,CLR,,0.00,WeatherDisplay:10.37,2013-04-27 03:24:00,
2013-04-26 22:29:00,69.2,66.2,30.05,WNW,291,0.0,2.0,90,0.00,CLR,,0.00,WeatherDisplay:10.37,2013-04-27 03:29:00,
2013-04-26 22:34:00,69.3,66.2,30.04,NW,315,0.0,1.0,90,0.00,CLR,,0.00,WeatherDisplay:10.37,2013-04-27 03:34:00,
2013-04-26 22:39:00,69.3,66.2,30.05,SE,135,1.1,0.0,90,0.00,CLR,,0.00,WeatherDisplay:10.37,2013-04-27 03:39:00,
2013-04-26 22:44:00,69.3,66.2,30.04,South,180,0.0,2.0,90,0.00,CLR,,0.00,WeatherDisplay:10.37,2013-04-27 03:44:00,
2013-04-26 22:49:00,69.1,66.0,30.04,SSE,159,0.0,2.0,90,0.00,CLR,,0.00,WeatherDisplay:10.37,2013-04-27 03:49:00,
2013-04-26 22:54:00,68.9,65.8,30.04,SSE,159,0.0,1.0,90,0.00,CLR,,0.00,WeatherDisplay:10.37,2013-04-27 03:54:00,
2013-04-26 22:59:00,68.5,65.5,30.04,South,186,0.0,1.0,90,0.00,CLR,,0.00,WeatherDisplay:10.37,2013-04-27 03:59:00,
2013-04-26 23:01:00,68.4,65.3,30.04,SSE,158,0.0,0.0,90,0.00,CLR,,0.00,WeatherDisplay:10.37,2013-04-27 04:01:00,
2013-04-26 23:06:00,68.4,65.3,30.03,SSE,158,0.0,0.0,90,0.00,CLR,,0.00,WeatherDisplay:10.37,2013-04-27 04:06:00,
2013-04-26 23:11:00,68.7,66.0,30.02,SE,135,1.1,0.0,91,0.00,CLR,,0.00,WeatherDisplay:10.37,2013-04-27 04:11:00,
2013-04-26 23:16:00,68.7,66.0,30.01,South,180,2.3,0.0,91,0.00,CLR,,0.00,WeatherDisplay:10.37,2013-04-27 04:16:00,
2013-04-26 23:21:00,68.9,66.5,30.01,NW,315,1.1,1.1,92,0.00,CLR,,0.00,WeatherDisplay:10.37,2013-04-27 04:21:00,
2013-04-26 23:26:00,68.9,66.2,30.01,North,0,2.3,0.0,91,0.00,CLR,,0.00,WeatherDisplay:10.37,2013-04-27 04:26:00,
2013-04-26 23:31:00,68.7,66.0,30.01,SE,135,1.1,0.0,91,0.00,CLR,,0.00,WeatherDisplay:10.37,2013-04-27 04:31:00,
2013-04-26 23:36:00,68.5,65.8,30.02,SW,225,3.5,0.0,91,0.00,CLR,,0.00,WeatherDisplay:10.37,2013-04-27 04:36:00,
2013-04-26 23:41:00,68.5,65.8,30.03,SE,135,2.3,0.0,91,0.00,CLR,,0.00,WeatherDisplay:10.37,2013-04-27 04:41:00,
2013-04-26 23:46:00,68.4,65.9,30.03,NW,315,3.5,0.0,92,0.00,CLR,,0.00,WeatherDisplay:10.37,2013-04-27 04:46:00,
2013-04-26 23:51:00,68.7,66.3,30.03,NW,315,1.1,0.0,92,0.00,CLR,,0.00,WeatherDisplay:10.37,2013-04-27 04:51:00,
2013-04-26 23:57:00,68.9,66.8,30.03,East,90,2.3,0.0,93,0.00,CLR,,0.00,WeatherDisplay:10.37,2013-04-27 04:57:00,